sensor_id;sensor_type;location;lat;lon;timestamp;pressure;altitude;pressure_sealevel;temperature;humidity
3960;BME280;1994;48.640;8.894;2023-11-19T00:01:40;96087.81;;;8.58;100.00
3960;BME280;1994;48.640;8.894;2023-11-19T00:04:06;96085.91;;;8.53;100.00
3960;BME280;1994;48.640;8.894;2023-11-19T00:06:32;96082.09;;;8.56;100.00
3960;BME280;1994;48.640;8.894;2023-11-19T00:08:57;96082.63;;;8.58;100.00
3960;BME280;1994;48.640;8.894;2023-11-19T00:11:26;96083.19;;;8.60;100.00
3960;BME280;1994;48.640;8.894;2023-11-19T00:13:51;96069.84;;;8.63;100.00
3960;BME280;1994;48.640;8.894;2023-11-19T00:16:20;96064.59;;;8.69;100.00
3960;BME280;1994;48.640;8.894;2023-11-19T00:18:45;96076.16;;;8.78;100.00
3960;BME280;1994;48.640;8.894;2023-11-19T00:21:11;96082.25;;;8.84;100.00
3960;BME280;1994;48.640;8.894;2023-11-19T00:23:37;96073.13;;;8.81;100.00
3960;BME280;1994;48.640;8.894;2023-11-19T00:26:04;96069.63;;;8.76;100.00
3960;BME280;1994;48.640;8.894;2023-11-19T00:28:32;96082.34;;;8.77;100.00
3960;BME280;1994;48.640;8.894;2023-11-19T00:30:59;96073.81;;;8.77;100.00
3960;BME280;1994;48.640;8.894;2023-11-19T00:33:24;96065.47;;;8.75;100.00
3960;BME280;1994;48.640;8.894;2023-11-19T00:35:50;96064.03;;;8.79;100.00
3960;BME280;1994;48.640;8.894;2023-11-19T00:38:16;96053.72;;;8.79;100.00
3960;BME280;1994;48.640;8.894;2023-11-19T00:40:41;96041.81;;;8.78;100.00
3960;BME280;1994;48.640;8.894;2023-11-19T00:43:07;96049.69;;;8.83;100.00
3960;BME280;1994;48.640;8.894;2023-11-19T00:45:33;96043.28;;;8.85;100.00
3960;BME280;1994;48.640;8.894;2023-11-19T00:47:59;96046.75;;;8.91;100.00
3960;BME280;1994;48.640;8.894;2023-11-19T00:50:25;96044.94;;;8.80;100.00
3960;BME280;1994;48.640;8.894;2023-11-19T00:52:51;96038.88;;;8.86;100.00
3960;BME280;1994;48.640;8.894;2023-11-19T00:55:17;96043.63;;;8.89;100.00
3960;BME280;1994;48.640;8.894;2023-11-19T00:57:43;96030.81;;;8.82;100.00
3960;BME280;1994;48.640;8.894;2023-11-19T01:00:09;96032.94;;;8.85;100.00
3960;BME280;1994;48.640;8.894;2023-11-19T01:02:45;96032.81;;;8.92;100.00
3960;BME280;1994;48.640;8.894;2023-11-19T01:05:11;96035.06;;;9.00;100.00
3960;BME280;1994;48.640;8.894;2023-11-19T01:07:39;96030.81;;;8.94;100.00
3960;BME280;1994;48.640;8.894;2023-11-19T01:10:06;96036.09;;;8.99;100.00
3960;BME280;1994;48.640;8.894;2023-11-19T01:12:33;96032.50;;;9.00;100.00
3960;BME280;1994;48.640;8.894;2023-11-19T01:14:59;96025.84;;;9.04;100.00
3960;BME280;1994;48.640;8.894;2023-11-19T01:17:26;96024.28;;;9.03;100.00
3960;BME280;1994;48.640;8.894;2023-11-19T01:19:52;96022.72;;;9.02;100.00
3960;BME280;1994;48.640;8.894;2023-11-19T01:22:17;96016.41;;;8.98;100.00
3960;BME280;1994;48.640;8.894;2023-11-19T01:24:44;96013.19;;;9.02;100.00
3960;BME280;1994;48.640;8.894;2023-11-19T01:27:10;96013.94;;;9.03;100.00
3960;BME280;1994;48.640;8.894;2023-11-19T01:29:35;95997.91;;;9.01;100.00
3960;BME280;1994;48.640;8.894;2023-11-19T01:32:04;95997.44;;;9.04;100.00
3960;BME280;1994;48.640;8.894;2023-11-19T01:34:29;95988.78;;;9.10;100.00
3960;BME280;1994;48.640;8.894;2023-11-19T01:36:55;96000.69;;;9.11;100.00
3960;BME280;1994;48.640;8.894;2023-11-19T01:39:21;96002.59;;;9.15;100.00
3960;BME280;1994;48.640;8.894;2023-11-19T01:41:47;96004.94;;;9.17;100.00
3960;BME280;1994;48.640;8.894;2023-11-19T01:44:13;96005.28;;;9.20;100.00
3960;BME280;1994;48.640;8.894;2023-11-19T01:46:42;96011.69;;;9.18;100.00
3960;BME280;1994;48.640;8.894;2023-11-19T01:49:09;96006.19;;;9.26;100.00
3960;BME280;1994;48.640;8.894;2023-11-19T01:51:38;96000.66;;;9.22;100.00
3960;BME280;1994;48.640;8.894;2023-11-19T01:54:04;96003.59;;;9.26;100.00
3960;BME280;1994;48.640;8.894;2023-11-19T01:56:30;96001.56;;;9.28;100.00
3960;BME280;1994;48.640;8.894;2023-11-19T01:58:57;95995.84;;;9.26;100.00
3960;BME280;1994;48.640;8.894;2023-11-19T02:01:23;95991.88;;;9.35;100.00
3960;BME280;1994;48.640;8.894;2023-11-19T02:03:49;95988.09;;;9.26;100.00
3960;BME280;1994;48.640;8.894;2023-11-19T02:06:16;95992.78;;;9.29;100.00
3960;BME280;1994;48.640;8.894;2023-11-19T02:08:42;95991.88;;;9.35;100.00
3960;BME280;1994;48.640;8.894;2023-11-19T02:11:09;95999.47;;;9.53;100.00
3960;BME280;1994;48.640;8.894;2023-11-19T02:13:35;95994.25;;;9.76;100.00
3960;BME280;1994;48.640;8.894;2023-11-19T02:16:03;95988.97;;;9.99;100.00
3960;BME280;1994;48.640;8.894;2023-11-19T02:18:29;95983.75;;;10.10;100.00
3960;BME280;1994;48.640;8.894;2023-11-19T02:20:58;95980.47;;;10.15;100.00
3960;BME280;1994;48.640;8.894;2023-11-19T02:23:27;95976.50;;;10.24;100.00
3960;BME280;1994;48.640;8.894;2023-11-19T02:28:44;95969.88;;;10.33;100.00
3960;BME280;1994;48.640;8.894;2023-11-19T02:31:11;95984.97;;;10.36;100.00
3960;BME280;1994;48.640;8.894;2023-11-19T02:33:38;95978.84;;;10.42;100.00
3960;BME280;1994;48.640;8.894;2023-11-19T02:36:08;95972.09;;;10.41;100.00
3960;BME280;1994;48.640;8.894;2023-11-19T02:38:35;95980.72;;;10.46;100.00
3960;BME280;1994;48.640;8.894;2023-11-19T02:41:04;95970.66;;;10.50;100.00
3960;BME280;1994;48.640;8.894;2023-11-19T02:43:32;95980.88;;;10.56;100.00
3960;BME280;1994;48.640;8.894;2023-11-19T02:46:03;95977.91;;;10.48;100.00
3960;BME280;1994;48.640;8.894;2023-11-19T02:48:33;95973.81;;;10.52;100.00
3960;BME280;1994;48.640;8.894;2023-11-19T02:51:04;95981.59;;;10.52;100.00
3960;BME280;1994;48.640;8.894;2023-11-19T02:53:30;95970.22;;;10.53;100.00
3960;BME280;1994;48.640;8.894;2023-11-19T02:55:57;95982.13;;;10.54;100.00
3960;BME280;1994;48.640;8.894;2023-11-19T02:58:37;95967.06;;;10.51;100.00
3960;BME280;1994;48.640;8.894;2023-11-19T03:01:04;95982.13;;;10.54;100.00
3960;BME280;1994;48.640;8.894;2023-11-19T03:03:39;95982.13;;;10.54;100.00
3960;BME280;1994;48.640;8.894;2023-11-19T03:06:07;95989.97;;;10.59;100.00
3960;BME280;1994;48.640;8.894;2023-11-19T03:08:35;95988.41;;;10.58;100.00
3960;BME280;1994;48.640;8.894;2023-11-19T03:11:01;95983.69;;;10.55;100.00
3960;BME280;1994;48.640;8.894;2023-11-19T03:13:59;95982.66;;;10.56;100.00
3960;BME280;1994;48.640;8.894;2023-11-19T03:16:25;95987.38;;;10.59;100.00
3960;BME280;1994;48.640;8.894;2023-11-19T03:18:51;95983.25;;;10.58;100.00
3960;BME280;1994;48.640;8.894;2023-11-19T03:21:17;95983.69;;;10.55;100.00
3960;BME280;1994;48.640;8.894;2023-11-19T03:23:43;95992.03;;;10.57;100.00
3960;BME280;1994;48.640;8.894;2023-11-19T03:26:10;95985.59;;;10.59;100.00
3960;BME280;1994;48.640;8.894;2023-11-19T03:28:36;95977.56;;;10.61;100.00
3960;BME280;1994;48.640;8.894;2023-11-19T03:31:05;95982.28;;;10.64;100.00
3960;BME280;1994;48.640;8.894;2023-11-19T03:33:33;95986.75;;;10.68;100.00
3960;BME280;1994;48.640;8.894;2023-11-19T03:35:59;95983.84;;;10.65;100.00
3960;BME280;1994;48.640;8.894;2023-11-19T03:38:25;95976.31;;;10.63;100.00
3960;BME280;1994;48.640;8.894;2023-11-19T03:40:51;95980.72;;;10.63;100.00
3960;BME280;1994;48.640;8.894;2023-11-19T03:43:16;95986.97;;;10.67;100.00
3960;BME280;1994;48.640;8.894;2023-11-19T03:45:42;95984.97;;;10.69;100.00
3960;BME280;1994;48.640;8.894;2023-11-19T03:48:08;95984.47;;;10.72;100.00
3960;BME280;1994;48.640;8.894;2023-11-19T03:50:34;95981.34;;;10.70;100.00
3960;BME280;1994;48.640;8.894;2023-11-19T03:53:00;95982.44;;;10.74;100.00
3960;BME280;1994;48.640;8.894;2023-11-19T03:55:26;95993.25;;;10.71;100.00
3960;BME280;1994;48.640;8.894;2023-11-19T03:57:51;95993.81;;;10.73;100.00
3960;BME280;1994;48.640;8.894;2023-11-19T04:00:17;95975.44;;;10.74;100.00
3960;BME280;1994;48.640;8.894;2023-11-19T04:02:43;95983.22;;;10.74;100.00
3960;BME280;1994;48.640;8.894;2023-11-19T04:05:09;95976.47;;;10.73;100.00
3960;BME280;1994;48.640;8.894;2023-11-19T04:07:35;95966.34;;;10.72;100.00
3960;BME280;1994;48.640;8.894;2023-11-19T04:10:01;95968.94;;;10.72;100.00
3960;BME280;1994;48.640;8.894;2023-11-19T04:12:27;95967.38;;;10.71;100.00
3960;BME280;1994;48.640;8.894;2023-11-19T04:14:53;95979.28;;;10.72;100.00
3960;BME280;1994;48.640;8.894;2023-11-19T04:17:18;95980.38;;;10.76;100.00
3960;BME280;1994;48.640;8.894;2023-11-19T04:19:44;95977.25;;;10.74;100.00
3960;BME280;1994;48.640;8.894;2023-11-19T04:22:10;95973.50;;;10.81;100.00
3960;BME280;1994;48.640;8.894;2023-11-19T04:24:36;95978.97;;;10.85;100.00
3960;BME280;1994;48.640;8.894;2023-11-19T04:27:02;95981.63;;;10.90;100.00
3960;BME280;1994;48.640;8.894;2023-11-19T04:29:30;95976.47;;;10.90;100.00
3960;BME280;1994;48.640;8.894;2023-11-19T04:31:56;96003.44;;;10.94;100.00
3960;BME280;1994;48.640;8.894;2023-11-19T04:34:22;96006.09;;;10.99;100.00
3960;BME280;1994;48.640;8.894;2023-11-19T04:36:47;96003.59;;;11.04;100.00
3960;BME280;1994;48.640;8.894;2023-11-19T04:39:13;96005.16;;;11.05;100.00
3960;BME280;1994;48.640;8.894;2023-11-19T04:41:50;96003.06;;;11.02;100.00
3960;BME280;1994;48.640;8.894;2023-11-19T04:44:19;95999.50;;;11.08;100.00
3960;BME280;1994;48.640;8.894;2023-11-19T04:46:45;95995.03;;;11.03;100.00
3960;BME280;1994;48.640;8.894;2023-11-19T04:49:12;96001.72;;;10.99;100.00
3960;BME280;1994;48.640;8.894;2023-11-19T04:51:45;96000.47;;;11.02;100.00
3960;BME280;1994;48.640;8.894;2023-11-19T04:54:13;95995.75;;;10.99;100.00
3960;BME280;1994;48.640;8.894;2023-11-19T04:56:39;95991.66;;;11.03;100.00
3960;BME280;1994;48.640;8.894;2023-11-19T04:59:06;95993.22;;;11.04;100.00
3960;BME280;1994;48.640;8.894;2023-11-19T05:01:34;96006.25;;;11.09;100.00
3960;BME280;1994;48.640;8.894;2023-11-19T05:04:01;95996.50;;;11.16;100.00
3960;BME280;1994;48.640;8.894;2023-11-19T05:06:30;95996.97;;;11.13;100.00
3960;BME280;1994;48.640;8.894;2023-11-19T05:08:58;95994.16;;;11.14;100.00
3960;BME280;1994;48.640;8.894;2023-11-19T05:11:27;96000.41;;;11.18;100.00
3960;BME280;1994;48.640;8.894;2023-11-19T05:13:54;95986.63;;;11.13;100.00
3960;BME280;1994;48.640;8.894;2023-11-19T05:16:20;95987.72;;;11.17;100.00
3960;BME280;1994;48.640;8.894;2023-11-19T05:18:47;95968.53;;;11.18;100.00
3960;BME280;1994;48.640;8.894;2023-11-19T05:21:13;95969.78;;;11.15;100.00
3960;BME280;1994;48.640;8.894;2023-11-19T05:23:39;95974.78;;;11.22;100.00
3960;BME280;1994;48.640;8.894;2023-11-19T05:26:05;95979.97;;;11.22;100.00
3960;BME280;1994;48.640;8.894;2023-11-19T05:28:31;95980.59;;;11.29;100.00
3960;BME280;1994;48.640;8.894;2023-11-19T05:30:57;95988.78;;;11.21;100.00
3960;BME280;1994;48.640;8.894;2023-11-19T05:33:22;95990.31;;;11.17;100.00
3960;BME280;1994;48.640;8.894;2023-11-19T05:35:48;95978.41;;;11.21;100.00
3960;BME280;1994;48.640;8.894;2023-11-19T05:38:14;95977.94;;;11.24;100.00
3960;BME280;1994;48.640;8.894;2023-11-19T05:40:41;95982.16;;;11.30;100.00
3960;BME280;1994;48.640;8.894;2023-11-19T05:43:07;95980.41;;;11.35;100.00
3960;BME280;1994;48.640;8.894;2023-11-19T05:45:32;95983.88;;;11.24;100.00
3960;BME280;1994;48.640;8.894;2023-11-19T05:47:58;95985.78;;;11.29;100.00
3960;BME280;1994;48.640;8.894;2023-11-19T05:50:24;95982.41;;;11.28;100.00
3960;BME280;1994;48.640;8.894;2023-11-19T05:52:50;95983.13;;;11.24;100.00
3960;BME280;1994;48.640;8.894;2023-11-19T05:55:16;95977.94;;;11.24;100.00
3960;BME280;1994;48.640;8.894;2023-11-19T05:57:42;95986.47;;;11.24;100.00
3960;BME280;1994;48.640;8.894;2023-11-19T06:00:08;95996.16;;;11.29;100.00
3960;BME280;1994;48.640;8.894;2023-11-19T06:02:36;95994.59;;;11.28;100.00
3960;BME280;1994;48.640;8.894;2023-11-19T06:05:04;95991.38;;;11.21;100.00
3960;BME280;1994;48.640;8.894;2023-11-19T06:07:35;96000.00;;;11.26;100.00
3960;BME280;1994;48.640;8.894;2023-11-19T06:10:02;95994.91;;;11.31;100.00
3960;BME280;1994;48.640;8.894;2023-11-19T06:12:30;95995.34;;;11.28;100.00
3960;BME280;1994;48.640;8.894;2023-11-19T06:14:57;95994.75;;;11.21;100.00
3960;BME280;1994;48.640;8.894;2023-11-19T06:17:23;95995.72;;;11.15;100.00
3960;BME280;1994;48.640;8.894;2023-11-19T06:19:48;95999.66;;;11.18;100.00
3960;BME280;1994;48.640;8.894;2023-11-19T06:22:14;96003.97;;;11.12;100.00
3960;BME280;1994;48.640;8.894;2023-11-19T06:24:40;95999.00;;;11.11;100.00
3960;BME280;1994;48.640;8.894;2023-11-19T06:27:05;95993.81;;;11.11;100.00
3960;BME280;1994;48.640;8.894;2023-11-19T06:29:31;95993.81;;;11.11;100.00
3960;BME280;1994;48.640;8.894;2023-11-19T06:31:57;95999.66;;;11.01;100.00
3960;BME280;1994;48.640;8.894;2023-11-19T06:34:22;96006.25;;;11.09;100.00
3960;BME280;1994;48.640;8.894;2023-11-19T06:36:48;95999.75;;;11.06;100.00
3960;BME280;1994;48.640;8.894;2023-11-19T06:39:14;95998.72;;;11.07;100.00
3960;BME280;1994;48.640;8.894;2023-11-19T06:41:45;96001.56;;;11.06;100.00
3960;BME280;1994;48.640;8.894;2023-11-19T06:44:11;96010.81;;;11.02;100.00
3960;BME280;1994;48.640;8.894;2023-11-19T06:46:37;96012.84;;;11.00;100.00
3960;BME280;1994;48.640;8.894;2023-11-19T06:49:03;96019.06;;;10.99;100.00
3960;BME280;1994;48.640;8.894;2023-11-19T06:51:29;96005.66;;;11.02;100.00
3960;BME280;1994;48.640;8.894;2023-11-19T06:53:55;96012.84;;;11.00;100.00
3960;BME280;1994;48.640;8.894;2023-11-19T06:56:24;95993.72;;;11.01;100.00
3960;BME280;1994;48.640;8.894;2023-11-19T06:58:51;96000.91;;;10.99;100.00
3960;BME280;1994;48.640;8.894;2023-11-19T07:01:17;95999.84;;;10.95;100.00
3960;BME280;1994;48.640;8.894;2023-11-19T07:03:45;96006.53;;;10.91;100.00
3960;BME280;1994;48.640;8.894;2023-11-19T07:06:12;96001.41;;;10.96;100.00
3960;BME280;1994;48.640;8.894;2023-11-19T07:08:40;96009.66;;;10.93;100.00
3960;BME280;1994;48.640;8.894;2023-11-19T07:11:06;95998.56;;;10.97;100.00
3960;BME280;1994;48.640;8.894;2023-11-19T07:13:35;96003.28;;;11.00;100.00
3960;BME280;1994;48.640;8.894;2023-11-19T07:16:01;96002.81;;;11.03;100.00
3960;BME280;1994;48.640;8.894;2023-11-19T07:18:27;95994.47;;;11.01;100.00
3960;BME280;1994;48.640;8.894;2023-11-19T07:20:52;96002.03;;;11.03;100.00
3960;BME280;1994;48.640;8.894;2023-11-19T07:23:19;95996.97;;;11.13;100.00
3960;BME280;1994;48.640;8.894;2023-11-19T07:25:44;95997.94;;;11.07;100.00
3960;BME280;1994;48.640;8.894;2023-11-19T07:28:13;96024.94;;;11.11;100.00
3960;BME280;1994;48.640;8.894;2023-11-19T07:30:39;96016.91;;;11.12;100.00
3960;BME280;1994;48.640;8.894;2023-11-19T07:33:04;96021.44;;;11.22;100.00
3960;BME280;1994;48.640;8.894;2023-11-19T07:35:31;96029.78;;;11.24;100.00
3960;BME280;1994;48.640;8.894;2023-11-19T07:37:57;96042.19;;;11.22;100.00
3960;BME280;1994;48.640;8.894;2023-11-19T07:40:24;96041.81;;;11.30;100.00
3960;BME280;1994;48.640;8.894;2023-11-19T07:42:49;96050.38;;;11.30;100.00
3960;BME280;1994;48.640;8.894;2023-11-19T07:45:16;96057.88;;;11.32;100.00
3960;BME280;1994;48.640;8.894;2023-11-19T07:47:43;96053.19;;;11.29;100.00
3960;BME280;1994;48.640;8.894;2023-11-19T07:50:12;96050.53;;;11.24;100.00
3960;BME280;1994;48.640;8.894;2023-11-19T07:52:40;96050.13;;;11.32;100.00
3960;BME280;1994;48.640;8.894;2023-11-19T07:55:06;96045.97;;;11.31;100.00
3960;BME280;1994;48.640;8.894;2023-11-19T07:57:31;96049.56;;;11.30;100.00
3960;BME280;1994;48.640;8.894;2023-11-19T07:59:57;96049.50;;;11.25;100.00
3960;BME280;1994;48.640;8.894;2023-11-19T08:02:23;96055.41;;;11.20;100.00
3960;BME280;1994;48.640;8.894;2023-11-19T08:04:50;96049.28;;;11.26;100.00
3960;BME280;1994;48.640;8.894;2023-11-19T08:07:21;96046.44;;;11.28;100.00
3960;BME280;1994;48.640;8.894;2023-11-19T08:09:48;96042.09;;;11.33;100.00
3960;BME280;1994;48.640;8.894;2023-11-19T08:12:13;96042.97;;;11.39;100.00
3960;BME280;1994;48.640;8.894;2023-11-19T08:14:41;96052.38;;;11.45;100.00
3960;BME280;1994;48.640;8.894;2023-11-19T08:17:07;96044.53;;;11.40;100.00
3960;BME280;1994;48.640;8.894;2023-11-19T08:19:33;96031.38;;;11.46;100.00
3960;BME280;1994;48.640;8.894;2023-11-19T08:21:58;96047.72;;;11.47;100.00
3960;BME280;1994;48.640;8.894;2023-11-19T08:24:24;96043.69;;;11.56;100.00
3960;BME280;1994;48.640;8.894;2023-11-19T08:26:50;96044.72;;;11.55;100.00
3960;BME280;1994;48.640;8.894;2023-11-19T08:29:15;96047.38;;;11.60;100.00
3960;BME280;1994;48.640;8.894;2023-11-19T08:31:42;96048.72;;;11.62;100.00
3960;BME280;1994;48.640;8.894;2023-11-19T08:34:07;96049.63;;;11.73;100.00
3960;BME280;1994;48.640;8.894;2023-11-19T08:36:34;96058.31;;;11.83;100.00
3960;BME280;1994;48.640;8.894;2023-11-19T08:39:00;96059.66;;;12.34;100.00
3960;BME280;1994;48.640;8.894;2023-11-19T08:41:26;96048.22;;;12.35;100.00
3960;BME280;1994;48.640;8.894;2023-11-19T08:43:52;96046.50;;;12.45;100.00
3960;BME280;1994;48.640;8.894;2023-11-19T08:46:18;96054.66;;;12.54;100.00
3960;BME280;1994;48.640;8.894;2023-11-19T08:48:44;96060.88;;;12.53;100.00
3960;BME280;1994;48.640;8.894;2023-11-19T08:51:12;96056.22;;;12.55;100.00
3960;BME280;1994;48.640;8.894;2023-11-19T08:53:38;96049.34;;;13.02;100.00
3960;BME280;1994;48.640;8.894;2023-11-19T08:56:04;96044.56;;;13.87;100.00
3960;BME280;1994;48.640;8.894;2023-11-19T08:58:30;96048.38;;;14.31;100.00
3960;BME280;1994;48.640;8.894;2023-11-19T09:00:56;96055.47;;;14.75;99.98
3960;BME280;1994;48.640;8.894;2023-11-19T09:03:23;96054.16;;;14.93;97.86
3960;BME280;1994;48.640;8.894;2023-11-19T09:05:49;96067.19;;;14.73;97.09
3960;BME280;1994;48.640;8.894;2023-11-19T09:08:15;96043.44;;;14.94;97.18
3960;BME280;1994;48.640;8.894;2023-11-19T09:10:41;96054.59;;;15.65;92.73
3960;BME280;1994;48.640;8.894;2023-11-19T09:13:06;96068.41;;;15.60;93.05
3960;BME280;1994;48.640;8.894;2023-11-19T09:15:32;96056.78;;;14.98;95.35
3960;BME280;1994;48.640;8.894;2023-11-19T09:17:58;96060.44;;;14.82;96.73
3960;BME280;1994;48.640;8.894;2023-11-19T09:20:23;96051.53;;;14.53;100.00
3960;BME280;1994;48.640;8.894;2023-11-19T09:22:49;96055.97;;;14.72;99.11
3960;BME280;1994;48.640;8.894;2023-11-19T09:25:15;96071.38;;;14.94;97.85
3960;BME280;1994;48.640;8.894;2023-11-19T09:27:44;96081.19;;;15.72;93.09
3960;BME280;1994;48.640;8.894;2023-11-19T09:30:10;96087.78;;;15.29;93.93
3960;BME280;1994;48.640;8.894;2023-11-19T09:32:36;96076.06;;;15.12;95.56
3960;BME280;1994;48.640;8.894;2023-11-19T09:35:03;96069.25;;;14.51;98.25
3960;BME280;1994;48.640;8.894;2023-11-19T09:37:29;96081.75;;;14.39;99.00
3960;BME280;1994;48.640;8.894;2023-11-19T09:40:50;96082.84;;;14.93;97.27
3960;BME280;1994;48.640;8.894;2023-11-19T09:43:16;96080.47;;;14.56;98.61
3960;BME280;1994;48.640;8.894;2023-11-19T09:45:50;96076.00;;;14.42;98.80
3960;BME280;1994;48.640;8.894;2023-11-19T09:48:18;96073.94;;;14.44;100.00
3960;BME280;1994;48.640;8.894;2023-11-19T09:50:48;96069.22;;;14.41;100.00
3960;BME280;1994;48.640;8.894;2023-11-19T09:53:15;96064.44;;;14.08;100.00
3960;BME280;1994;48.640;8.894;2023-11-19T09:55:45;96071.16;;;13.89;100.00
3960;BME280;1994;48.640;8.894;2023-11-19T09:58:12;96066.75;;;13.99;100.00
3960;BME280;1994;48.640;8.894;2023-11-19T10:00:40;96064.63;;;13.91;100.00
3960;BME280;1994;48.640;8.894;2023-11-19T10:03:08;96049.00;;;13.86;100.00
3960;BME280;1994;48.640;8.894;2023-11-19T10:05:36;96053.44;;;13.91;100.00
3960;BME280;1994;48.640;8.894;2023-11-19T10:08:04;96042.00;;;13.97;100.00
3960;BME280;1994;48.640;8.894;2023-11-19T10:10:30;96054.22;;;13.86;99.16
3960;BME280;1994;48.640;8.894;2023-11-19T10:12:56;96057.38;;;13.98;99.75
3960;BME280;1994;48.640;8.894;2023-11-19T10:15:24;96044.38;;;14.03;98.06
3960;BME280;1994;48.640;8.894;2023-11-19T10:17:51;96057.69;;;14.17;99.09
3960;BME280;1994;48.640;8.894;2023-11-19T10:20:17;96048.88;;;14.23;98.12
3960;BME280;1994;48.640;8.894;2023-11-19T10:22:43;96067.72;;;14.85;94.55
3960;BME280;1994;48.640;8.894;2023-11-19T10:25:28;96048.34;;;15.46;88.59
3960;BME280;1994;48.640;8.894;2023-11-19T10:27:56;96046.28;;;15.43;90.28
3960;BME280;1994;48.640;8.894;2023-11-19T10:30:24;96036.34;;;15.30;90.58
3960;BME280;1994;48.640;8.894;2023-11-19T10:35:35;96021.03;;;14.93;89.39
3960;BME280;1994;48.640;8.894;2023-11-19T10:38:13;96020.03;;;15.83;85.54
3960;BME280;1994;48.640;8.894;2023-11-19T10:40:40;96019.34;;;16.16;83.67
3960;BME280;1994;48.640;8.894;2023-11-19T10:43:06;96027.06;;;17.08;82.82
3960;BME280;1994;48.640;8.894;2023-11-19T10:45:36;96021.53;;;18.96;73.96
3960;BME280;1994;48.640;8.894;2023-11-19T10:48:04;96028.56;;;19.73;68.13
3960;BME280;1994;48.640;8.894;2023-11-19T10:50:37;96017.28;;;19.13;68.02
3960;BME280;1994;48.640;8.894;2023-11-19T10:53:04;96020.38;;;19.02;69.16
3960;BME280;1994;48.640;8.894;2023-11-19T10:55:33;96022.25;;;18.83;68.65
3960;BME280;1994;48.640;8.894;2023-11-19T10:58:03;96013.75;;;18.91;67.80
3960;BME280;1994;48.640;8.894;2023-11-19T11:00:34;96013.28;;;19.48;68.75
3960;BME280;1994;48.640;8.894;2023-11-19T11:03:10;96009.88;;;20.37;63.76
3960;BME280;1994;48.640;8.894;2023-11-19T11:05:38;95995.00;;;21.29;61.20
3960;BME280;1994;48.640;8.894;2023-11-19T11:08:06;96005.44;;;21.73;57.28
3960;BME280;1994;48.640;8.894;2023-11-19T11:10:54;95998.38;;;21.99;56.89
3960;BME280;1994;48.640;8.894;2023-11-19T11:13:22;96006.50;;;21.33;57.59
3960;BME280;1994;48.640;8.894;2023-11-19T11:15:55;96011.84;;;20.89;59.71
3960;BME280;1994;48.640;8.894;2023-11-19T11:18:23;96013.28;;;19.48;63.25
3960;BME280;1994;48.640;8.894;2023-11-19T11:31:59;96017.03;;;17.15;73.40
3960;BME280;1994;48.640;8.894;2023-11-19T11:34:44;96023.16;;;16.72;77.16
3960;BME280;1994;48.640;8.894;2023-11-19T11:37:33;96026.81;;;17.04;75.02
3960;BME280;1994;48.640;8.894;2023-11-19T11:40:02;96014.09;;;16.93;75.07
3960;BME280;1994;48.640;8.894;2023-11-19T11:42:36;96018.91;;;16.81;76.06
3960;BME280;1994;48.640;8.894;2023-11-19T11:45:09;96021.84;;;16.74;75.87
3960;BME280;1994;48.640;8.894;2023-11-19T11:50:20;95997.56;;;16.69;77.46
3960;BME280;1994;48.640;8.894;2023-11-19T11:55:52;96000.16;;;16.30;76.04
3960;BME280;1994;48.640;8.894;2023-11-19T11:58:31;96009.50;;;16.80;75.71
3960;BME280;1994;48.640;8.894;2023-11-19T12:01:04;96012.50;;;17.25;74.83
3960;BME280;1994;48.640;8.894;2023-11-19T12:03:32;96015.44;;;16.90;74.99
3960;BME280;1994;48.640;8.894;2023-11-19T12:05:58;96006.69;;;17.28;73.64
3960;BME280;1994;48.640;8.894;2023-11-19T12:08:29;95999.13;;;17.74;70.34
3960;BME280;1994;48.640;8.894;2023-11-19T12:10:57;96004.50;;;17.64;70.03
3960;BME280;1994;48.640;8.894;2023-11-19T12:14:02;95993.56;;;17.80;70.70
3960;BME280;1994;48.640;8.894;2023-11-19T12:16:29;96000.91;;;18.39;69.21
3960;BME280;1994;48.640;8.894;2023-11-19T12:18:56;96003.16;;;18.64;66.95
3960;BME280;1994;48.640;8.894;2023-11-19T12:21:30;95991.66;;;18.60;65.62
3960;BME280;1994;48.640;8.894;2023-11-19T12:23:58;95995.66;;;18.39;65.63
3960;BME280;1994;48.640;8.894;2023-11-19T12:26:34;95981.06;;;17.72;66.30
3960;BME280;1994;48.640;8.894;2023-11-19T12:29:01;95977.81;;;17.62;67.11
3960;BME280;1994;48.640;8.894;2023-11-19T12:31:29;95992.22;;;17.83;66.20
3960;BME280;1994;48.640;8.894;2023-11-19T12:33:56;95976.31;;;17.56;66.63
3960;BME280;1994;48.640;8.894;2023-11-19T12:36:22;95981.66;;;17.46;66.71
3960;BME280;1994;48.640;8.894;2023-11-19T12:38:48;95979.63;;;17.38;67.79
3960;BME280;1994;48.640;8.894;2023-11-19T12:41:14;95982.09;;;17.53;67.02
3960;BME280;1994;48.640;8.894;2023-11-19T12:43:43;95984.16;;;17.98;64.37
3960;BME280;1994;48.640;8.894;2023-11-19T12:46:22;95982.06;;;18.37;64.48
3960;BME280;1994;48.640;8.894;2023-11-19T12:48:49;95976.94;;;17.90;65.08
3960;BME280;1994;48.640;8.894;2023-11-19T12:51:15;95970.56;;;17.96;63.90
3960;BME280;1994;48.640;8.894;2023-11-19T12:53:53;95972.69;;;17.94;63.38
3960;BME280;1994;48.640;8.894;2023-11-19T12:56:24;95970.28;;;17.55;65.45
3960;BME280;1994;48.640;8.894;2023-11-19T12:58:50;95959.16;;;17.45;65.59
3960;BME280;1994;48.640;8.894;2023-11-19T13:01:26;95962.13;;;17.10;67.07
3960;BME280;1994;48.640;8.894;2023-11-19T13:03:52;95972.22;;;16.93;67.74
3960;BME280;1994;48.640;8.894;2023-11-19T13:06:18;95961.63;;;16.79;68.48
3960;BME280;1994;48.640;8.894;2023-11-19T13:08:49;95966.00;;;16.89;67.76
3960;BME280;1994;48.640;8.894;2023-11-19T13:11:50;95965.47;;;16.25;70.67
3960;BME280;1994;48.640;8.894;2023-11-19T13:14:16;95949.66;;;16.45;71.03
3960;BME280;1994;48.640;8.894;2023-11-19T13:16:42;95956.06;;;16.24;70.66
3960;BME280;1994;48.640;8.894;2023-11-19T13:19:09;95960.69;;;16.32;71.26
3960;BME280;1994;48.640;8.894;2023-11-19T13:21:35;95958.53;;;16.44;70.51
3960;BME280;1994;48.640;8.894;2023-11-19T13:24:05;95960.88;;;16.45;70.72
3960;BME280;1994;48.640;8.894;2023-11-19T13:26:31;95956.94;;;16.48;70.38
3960;BME280;1994;48.640;8.894;2023-11-19T13:28:57;95949.09;;;16.48;70.99
3960;BME280;1994;48.640;8.894;2023-11-19T13:31:23;95958.69;;;16.57;71.24
3960;BME280;1994;48.640;8.894;2023-11-19T13:33:49;95952.13;;;16.60;70.64
3960;BME280;1994;48.640;8.894;2023-11-19T13:36:14;95955.00;;;16.25;69.90
3960;BME280;1994;48.640;8.894;2023-11-19T13:38:40;95953.06;;;16.40;68.76
3960;BME280;1994;48.640;8.894;2023-11-19T13:41:12;95943.78;;;16.58;69.18